• Join FlightAware (Why Join?)
  • Login
  • US Flag 
03:17PM EDT


 

Airport Tracker/Info


-or-


 

Live Flight TrackerFlight Track Log ✈ UAL33 ✈ 24-Sep-2013 ✈ RJAA / NRT - KLAX

Flight Track Log - Related Links

Times and Time Zones

All times are in EDT time to prevent confusion due to time zone crossing. See the UAL33 flight status page for this flight to view local times or setup timezone preferences in your user account.

Time Position Orientation Groundspeed Altitude Reporting Facility
EDT Latitude Longitude Course Direction KTS MPH feet Rate Location/Type
04:39AM 35.7830 140.3610 331° Northwest 175 201 1,500  Level FlightAware
04:40AM 35.7930 140.3550 334° Northwest 181 208 1,900 1,560 Climbing FlightAware
04:40AM 35.8080 140.3440 329° Northwest 186 214 2,500 1,740 Climbing FlightAware
04:41AM 35.8310 140.3270 329° Northwest 193 222 3,400 1,560 Climbing FlightAware
04:41AM 35.8430 140.3180 329° Northwest 207 238 3,700 1,140 Climbing FlightAware
04:41AM 35.8630 140.3040 330° Northwest 245 282 4,100 1,200 Climbing FlightAware
04:42AM 35.8870 140.2870 330° Northwest 267 307 4,500 1,440 Climbing FlightAware
04:42AM 35.9040 140.2740 328° Northwest 282 325 5,100 2,640 Climbing FlightAware
04:42AM 35.9400 140.2640 347° North 285 328 6,400 3,000 Climbing FlightAware
04:42AM 35.9500 140.2670 14° North 283 326 6,600 1,500 Climbing FlightAware
04:43AM 35.9600 140.2740 30° Northeast 284 327 6,800 1,500 Climbing FlightAware
04:43AM 35.9640 140.2770 31° Northeast 282 325 6,900 1,500 Climbing FlightAware
04:43AM 35.9710 140.2880 52° Northeast 278 320 7,100 1,680 Climbing FlightAware
04:43AM 35.9740 140.2960 65° Northeast 277 319 7,300 2,400 Climbing FlightAware
04:43AM 35.9770 140.3080 73° East 274 315 7,700 2,280 Climbing FlightAware
04:43AM 35.9770 140.3140 90° East 273 314 7,800 2,220 Climbing FlightAware
04:43AM 35.9690 140.3460 107° East 270 311 8,700 2,640 Climbing FlightAware
04:44AM 35.9560 140.3730 121° Southeast 271 312 9,700 2,100 Climbing FlightAware
04:44AM 35.9300 140.4200 124° Southeast 292 336 10,700 1,500 Climbing FlightAware
04:45AM 35.8980 140.4680 129° Southeast 321 369 11,500 1,800 Climbing FlightAware
04:45AM 35.8670 140.5170 128° Southeast 337 388 12,800 2,340 Climbing FlightAware
04:46AM 35.8330 140.5700 128° Southeast 344 396 14,200 1,740 Climbing FlightAware
04:47AM 35.7910 140.6360 128° Southeast 369 425 15,000 660 Climbing FlightAware
04:47AM 35.7590 140.6880 127° Southeast 368 423 15,000  Level FlightAware
04:47AM 35.7490 140.7150 115° Southeast 366 421 15,000  Level FlightAware
04:48AM 35.7450 140.7460 99° East 363 418 15,000  Level FlightAware
04:48AM 35.7490 140.8170 86° East 366 421 15,000 660 Level FlightAware
04:49AM 35.7560 140.8900 83° East 369 425 15,800 1,620 Climbing FlightAware
04:50AM 35.7640 140.9740 83° East 384 442 17,000 1,800 Climbing FlightAware
04:50AM 35.7710 141.0390 82° East 394 453 17,900 1,380 Climbing FlightAware
04:51AM 35.7790 141.1190 83° East 417 480 18,500 1,200 Climbing FlightAware
04:51AM 35.7880 141.2130 83° East 432 497 19,400 1,620 Climbing FlightAware
04:52AM 35.7960 141.3000 84° East 439 505 20,500 1,680 Climbing FlightAware
04:52AM 35.8030 141.3730 83° East 444 511 21,300 1,560 Climbing FlightAware
04:53AM 35.8110 141.4620 84° East 454 522 22,200 1,560 Climbing FlightAware
04:54AM 35.8290 141.5610 77° East 461 531 23,200 1,440 Climbing FlightAware
04:54AM 35.8560 141.6410 67° East 463 533 24,000 1,440 Climbing FlightAware
04:55AM 35.8930 141.7430 66° East 469 540 25,000 1,380 Climbing FlightAware
04:55AM 35.9250 141.8360 67° East 478 550 25,800 1,260 Climbing FlightAware
04:56AM 35.9510 141.9080 66° East 480 552 26,500 1,440 Climbing FlightAware
04:57AM 35.9860 142.0070 66° East 485 558 27,500 1,320 Climbing FlightAware
04:57AM 36.0160 142.0940 67° East 489 563 28,100 1,020 Climbing FlightAware
04:58AM 36.0520 142.1950 66° East 499 574 28,800 960 Climbing FlightAware
04:58AM 36.0890 142.3020 67° East 505 581 29,400 840 Climbing FlightAware
04:59AM 36.1190 142.3870 66° East 512 589 29,800 900 Climbing FlightAware
05:00AM 36.1490 142.4730 67° East 516 594 30,400 960 Climbing FlightAware
05:00AM 36.1860 142.5820 67° East 522 601 31,100 960 Climbing FlightAware
05:01AM 36.2320 142.7170 67° East 528 608 31,800 1,260 Climbing FlightAware
05:02AM 36.2650 142.8120 67° East 519 597 32,800 2,160 Climbing FlightAware
05:02AM 36.3010 142.9190 67° East 498 573 34,500 1,620 Climbing FlightAware
05:03AM 36.3250 142.9890 67° East 506 582 34,700 780 Climbing FlightAware
05:03AM 36.3610 143.0920 67° East 507 583 35,400 1,200 Climbing FlightAware
05:04AM 36.3920 143.1840 67° East 504 580 36,100 1,020 Climbing FlightAware
05:05AM 36.4320 143.3040 67° East 504 580 36,800 600 Climbing FlightAware
05:05AM 36.4690 143.4120 67° East 507 583 37,000 120 Climbing FlightAware
05:06AM 36.4990 143.5030 68° East 505 581 37,000  Level FlightAware
05:07AM 36.5320 143.5990 67° East 505 581 37,000  Level FlightAware
05:07AM 36.5750 143.7310 68° East 504 580 37,000  Level FlightAware
05:08AM 36.6070 143.8280 68° East 505 581 37,000  Level FlightAware
05:08AM 36.6350 143.9120 67° East 505 581 37,000  Level FlightAware
05:09AM 36.6700 144.0160 67° East 505 581 37,000 180 Level FlightAware
05:10AM 36.7120 144.1430 68° East 507 583 37,300 180 Climbing FlightAware
05:11AM 36.7400 144.2250 67° East 507 583 37,300  Level FlightAware
05:11AM 36.7690 144.3100 67° East 507 583 37,300 1,140 Level FlightAware
05:12AM 36.8190 144.4740 69° East 509 586 38,900 1,320 Climbing FlightAware
05:12AM 36.8450 144.5530 68° East 509 586 39,000 60 Climbing FlightAware
05:13AM 36.8740 144.6450 68° East 509 586 39,000  Level FlightAware
05:14AM 36.9160 144.7750 68° East 507 583 39,000  Level FlightAware
05:14AM 36.9480 144.8780 69° East 507 583 39,000  Level FlightAware
05:15AM 36.9800 144.9790 68° East 507 583 39,000  Level FlightAware
05:16AM 37.0060 145.0630 69° East 507 583 39,000  Level FlightAware
05:16AM 37.0320 145.1470 69° East 507 583 39,000  Level FlightAware
05:17AM 37.0570 145.2310 70° East 507 583 39,000  Level FlightAware
05:18AM 37.1090 145.3840 67° East 505 581 39,000  Level FlightAware
05:18AM 37.1340 145.4680 70° East 505 581 39,000  Level FlightAware
05:19AM 37.1600 145.5520 69° East 505 581 39,000  Level FlightAware
05:19AM 37.1840 145.6310 69° East 505 581 39,000  Level FlightAware
05:20AM 37.2100 145.7150 69° East 505 581 39,000  Level FlightAware
05:21AM 37.2350 145.7980 69° East 505 581 39,000  Level FlightAware
05:21AM 37.2610 145.8820 69° East 505 581 39,000  Level FlightAware
05:22AM 37.2870 145.9660 69° East 505 581 39,000  Level FlightAware
05:22AM 37.3130 146.0520 69° East 505 581 39,000  Level FlightAware
05:23AM 37.4620 146.1980 38° Northeast 39,000  Level FlightAware
05:23AM 37.5050 146.2860 58° Northeast 493 567 39,000  Level FlightAware
05:24AM 37.5500 146.3780 58° Northeast 493 567 39,000  Level FlightAware
05:25AM 37.5870 146.4520 58° Northeast 493 567 39,000  Level FlightAware
05:25AM 37.6250 146.5290 58° Northeast 493 567 39,000  Level FlightAware
05:26AM 37.6620 146.6040 58° Northeast 493 567 39,000  Level FlightAware
05:27AM 37.7000 146.6810 58° Northeast 493 567 39,000  Level FlightAware
05:27AM 37.7370 146.7560 58° Northeast 493 567 39,000  Level FlightAware
05:28AM 37.7750 146.8330 58° Northeast 493 567 39,000  Level FlightAware
05:28AM 37.8120 146.9070 58° Northeast 493 567 39,000  Level FlightAware
05:29AM 37.8490 146.9820 58° Northeast 493 567 39,000  Level FlightAware
05:30AM 37.8860 147.0570 58° Northeast 493 567 39,000  Level FlightAware
05:30AM 37.9230 147.1320 58° Northeast 493 567 39,000  Level FlightAware
05:31AM 37.9600 147.2070 58° Northeast 493 567 39,000  Level FlightAware
05:31AM 37.9970 147.2830 58° Northeast 493 567 39,000  Level FlightAware
05:32AM 38.0340 147.3580 58° Northeast 493 567 39,000  Level FlightAware
05:33AM 38.0710 147.4330 58° Northeast 493 567 39,000  Level FlightAware
05:33AM 38.1080 147.5080 58° Northeast 493 567 39,000  Level FlightAware
05:36AM 38.2726 147.8740 60° Northeast  Level Estimated
05:37AM 38.3428 148.0313 60° Northeast  Level Estimated
05:38AM 38.4128 148.1890 60° Northeast  Level Estimated
05:39AM 38.4826 148.3469 61° Northeast  Level Estimated
05:40AM 38.5522 148.5052 61° Northeast  Level Estimated
05:41AM 38.6216 148.6638 61° Northeast  Level Estimated
05:42AM 38.6907 148.8227 61° Northeast  Level Estimated
05:43AM 38.7597 148.9819 61° Northeast  Level Estimated
05:44AM 38.8284 149.1413 61° Northeast  Level Estimated
05:45AM 38.8969 149.3011 61° Northeast  Level Estimated
05:46AM 38.9651 149.4612 61° Northeast  Level Estimated
05:47AM 39.0332 149.6217 61° Northeast  Level Estimated
05:48AM 39.1011 149.7824 61° Northeast  Level Estimated
05:49AM 39.1687 149.9434 62° Northeast  Level Estimated
05:50AM 39.2361 150.1048 62° Northeast  Level Estimated
05:51AM 39.3032 150.2664 62° Northeast  Level Estimated
05:52AM 39.3702 150.4284 62° Northeast  Level Estimated
05:53AM 39.4369 150.5907 62° Northeast  Level Estimated
05:54AM 39.5034 150.7533 62° Northeast  Level Estimated
05:55AM 39.5697 150.9162 62° Northeast  Level Estimated
05:56AM 39.6357 151.0794 62° Northeast  Level Estimated
05:57AM 39.7015 151.2429 62° Northeast  Level Estimated
05:58AM 39.7671 151.4067 62° Northeast  Level Estimated
05:59AM 39.8325 151.5709 63° Northeast  Level Estimated
06:00AM 39.8976 151.7353 63° Northeast  Level Estimated
06:01AM 39.9625 151.9001 63° Northeast  Level Estimated
06:02AM 40.0272 152.0652 63° Northeast  Level Estimated
06:03AM 40.0916 152.2305 63° Northeast  Level Estimated
06:04AM 40.1558 152.3963 63° Northeast  Level Estimated
06:05AM 40.2197 152.5623 63° Northeast  Level Estimated
06:06AM 40.2834 152.7286 63° Northeast  Level Estimated
06:07AM 40.3469 152.8952 63° Northeast  Level Estimated
06:08AM 40.4101 153.0622 64° Northeast  Level Estimated
06:09AM 40.4731 153.2295 64° Northeast  Level Estimated
06:10AM 40.5359 153.3971 64° Northeast  Level Estimated
06:11AM 40.5984 153.5650 64° Northeast  Level Estimated
06:12AM 40.6607 153.7332 64° Northeast  Level Estimated
06:13AM 40.7227 153.9017 64° Northeast  Level Estimated
06:14AM 40.7845 154.0705 64° Northeast  Level Estimated
06:15AM 40.8460 154.2397 64° Northeast  Level Estimated
06:16AM 40.9073 154.4092 64° Northeast  Level Estimated
06:17AM 40.9683 154.5789 64° Northeast  Level Estimated
06:18AM 41.0291 154.7490 65° Northeast  Level Estimated
06:19AM 41.0896 154.9194 65° Northeast  Level Estimated
06:20AM 41.1499 155.0902 65° Northeast  Level Estimated
06:21AM 41.2099 155.2612 65° Northeast  Level Estimated
06:22AM 41.2697 155.4326 65° Northeast  Level Estimated
06:23AM 41.3292 155.6042 65° Northeast  Level Estimated
06:24AM 41.3885 155.7762 65° Northeast  Level Estimated
06:25AM 41.4475 155.9485 65° Northeast  Level Estimated
06:26AM 41.5062 156.1211 66° East  Level Estimated
06:27AM 41.5647 156.2940 66° East  Level Estimated
06:28AM 41.6230 156.4672 66° East  Level Estimated
06:29AM 41.6809 156.6408 66° East  Level Estimated
06:30AM 41.7387 156.8146 66° East  Level Estimated
06:31AM 41.7961 156.9888 66° East  Level Estimated
06:32AM 41.8533 157.1633 66° East  Level Estimated
06:33AM 41.9102 157.3380 66° East  Level Estimated
06:34AM 41.9669 157.5131 66° East  Level Estimated
06:35AM 42.0233 157.6886 67° East  Level Estimated
06:36AM 42.0794 157.8643 67° East  Level Estimated
06:37AM 42.1352 158.0403 67° East  Level Estimated
06:38AM 42.1908 158.2166 67° East  Level Estimated
06:39AM 42.2461 158.3933 67° East  Level Estimated
06:40AM 42.3012 158.5703 67° East  Level Estimated
06:41AM 42.3556 158.7466 67° East  Level Estimated
06:42AM 42.4099 158.9232 67° East  Level Estimated
06:43AM 42.4638 159.1001 67° East  Level Estimated
06:44AM 42.5174 159.2773 68° East  Level Estimated
06:45AM 42.5708 159.4549 68° East  Level Estimated
06:46AM 42.6239 159.6327 68° East  Level Estimated
06:47AM 42.6768 159.8109 68° East  Level Estimated
06:48AM 42.7293 159.9893 68° East  Level Estimated
06:49AM 42.7816 160.1681 68° East  Level Estimated
06:50AM 42.8336 160.3471 68° East  Level Estimated
06:51AM 42.8854 160.5265 68° East  Level Estimated
06:52AM 42.9368 160.7061 69° East  Level Estimated
06:53AM 42.9880 160.8861 69° East  Level Estimated
06:54AM 43.0388 161.0663 69° East  Level Estimated
06:55AM 43.0895 161.2469 69° East  Level Estimated
06:56AM 43.1398 161.4277 69° East  Level Estimated
06:57AM 43.1898 161.6089 69° East  Level Estimated
06:58AM 43.2395 161.7903 69° East  Level Estimated
06:59AM 43.2890 161.9720 69° East  Level Estimated
07:00AM 43.3382 162.1541 70° East  Level Estimated
07:01AM 43.3870 162.3364 70° East  Level Estimated
07:02AM 43.4356 162.5190 70° East  Level Estimated
07:03AM 43.4839 162.7019 70° East  Level Estimated
07:04AM 43.5319 162.8851 70° East  Level Estimated
07:05AM 43.5797 163.0686 70° East  Level Estimated
07:06AM 43.6271 163.2524 70° East  Level Estimated
07:07AM 43.6742 163.4364 70° East  Level Estimated
07:08AM 43.7210 163.6208 71° East  Level Estimated
07:09AM 43.7676 163.8055 71° East  Level Estimated
07:10AM 43.8138 163.9904 71° East  Level Estimated
07:11AM 43.8597 164.1756 71° East  Level Estimated
07:12AM 43.9053 164.3611 71° East  Level Estimated
07:13AM 43.9507 164.5469 71° East  Level Estimated
07:14AM 43.9957 164.7330 71° East  Level Estimated
07:15AM 44.0404 164.9193 71° East  Level Estimated
07:16AM 44.0849 165.1060 72° East  Level Estimated
07:17AM 44.1290 165.2929 72° East  Level Estimated
07:18AM 44.1728 165.4801 72° East  Level Estimated
07:19AM 44.2163 165.6675 72° East  Level Estimated
07:20AM 44.2595 165.8553 72° East  Level Estimated
07:21AM 44.3024 166.0433 72° East  Level Estimated
07:22AM 44.3450 166.2316 72° East  Level Estimated
07:23AM 44.3873 166.4201 73° East  Level Estimated
07:24AM 44.4293 166.6090 73° East  Level Estimated
07:25AM 44.4709 166.7981 73° East  Level Estimated
07:26AM 44.5123 166.9875 73° East  Level Estimated
07:27AM 44.5533 167.1771 73° East  Level Estimated
07:28AM 44.5940 167.3670 73° East  Level Estimated
07:29AM 44.6344 167.5572 73° East  Level Estimated
07:30AM 44.6745 167.7477 73° East  Level Estimated
07:31AM 44.7143 167.9384 74° East  Level Estimated
07:32AM 44.7537 168.1293 74° East  Level Estimated
07:33AM 44.7928 168.3206 74° East  Level Estimated
07:34AM 44.8316 168.5120 74° East  Level Estimated
07:35AM 44.8701 168.7038 74° East  Level Estimated
07:36AM 44.9083 168.8958 74° East  Level Estimated
07:37AM 44.9462 169.0880 74° East  Level Estimated
07:38AM 44.9837 169.2805 75° East  Level Estimated
07:38AM 43.9500 169.2500 84° East 512 589 40,000  Level Oakland Oceanic (ODAPS)
07:39AM 45.0209 169.4733 75° East  Level Estimated
07:40AM 45.0578 169.6663 75° East  Level Estimated
07:41AM 45.0943 169.8595 75° East  Level Estimated
07:42AM 45.1305 170.0530 75° East  Level Estimated
07:43AM 45.1664 170.2468 75° East  Level Estimated
07:43AM 44.0333 170.2000 79° East 538 619 40,000  Level Oakland Oceanic (ODAPS)
07:44AM 44.0589 170.4090 79° East 512 589 40,000  Level FlightAware Transoceanic
07:45AM 44.0878 170.6138 79° East 512 589 40,000  Level FlightAware Transoceanic
07:46AM 44.1163 170.8188 79° East 512 589 40,000  Level FlightAware Transoceanic
07:47AM 44.1445 171.0240 79° East 512 589 40,000  Level FlightAware Transoceanic
07:48AM 44.1723 171.2294 79° East 512 589 40,000  Level FlightAware Transoceanic
07:49AM 44.2030 171.4312 80° East 538 619 40,000  Level FlightAware Transoceanic
07:50AM 44.2300 171.6370 80° East 538 619 40,000  Level FlightAware Transoceanic
07:51AM 44.2567 171.8431 80° East 538 619 40,000  Level FlightAware Transoceanic
07:52AM 44.2829 172.0493 80° East 538 619 40,000  Level FlightAware Transoceanic
07:52AM 44.2667 171.9500 80° East 526 605 40,000  Level Oakland Oceanic (ODAPS)
07:53AM 44.3088 172.2558 80° East 538 619 40,000  Level FlightAware Transoceanic
07:54AM 44.3343 172.4624 80° East 538 619 40,000  Level FlightAware Transoceanic
07:55AM 44.3594 172.6691 80° East 538 619 40,000  Level FlightAware Transoceanic
07:56AM 44.3842 172.8761 81° East 538 619 40,000  Level FlightAware Transoceanic
07:57AM 44.4086 173.0833 81° East 538 619 40,000  Level FlightAware Transoceanic
07:58AM 44.4161 173.1741 81° East 526 605 40,000  Level FlightAware Transoceanic
07:59AM 44.4397 173.3787 81° East 526 605 40,000  Level FlightAware Transoceanic
08:00AM 44.4630 173.5835 81° East 526 605 40,000  Level FlightAware Transoceanic
08:01AM 44.4859 173.7885 81° East 526 605 40,000  Level FlightAware Transoceanic
08:02AM 44.5084 173.9935 81° East 526 605 40,000  Level FlightAware Transoceanic
08:03AM 44.5306 174.1988 81° East 526 605 40,000  Level FlightAware Transoceanic
08:04AM 44.5524 174.4042 82° East 526 605 40,000  Level FlightAware Transoceanic
08:05AM 44.5738 174.6098 82° East 526 605 40,000  Level FlightAware Transoceanic
08:06AM 44.5949 174.8155 82° East 526 605 40,000  Level FlightAware Transoceanic
08:06AM 44.5833 174.7333 82° East 535 616 40,000  Level Oakland Oceanic (ODAPS)
08:07AM 44.6156 175.0214 82° East 526 605 40,000  Level FlightAware Transoceanic
08:08AM 44.6359 175.2274 82° East 526 605 40,000  Level FlightAware Transoceanic
08:09AM 44.6558 175.4335 82° East 526 605 40,000  Level FlightAware Transoceanic
08:10AM 44.6754 175.6398 82° East 526 605 40,000  Level FlightAware Transoceanic
08:11AM 44.6946 175.8463 83° East 526 605 40,000  Level FlightAware Transoceanic
08:12AM 44.7054 175.9901 83° East 535 616 40,000  Level FlightAware Transoceanic
08:13AM 44.7243 176.2000 83° East 535 616 40,000  Level FlightAware Transoceanic
08:14AM 44.7430 176.4101 83° East 535 616 40,000  Level FlightAware Transoceanic
08:15AM 44.7612 176.6203 83° East 535 616 40,000  Level FlightAware Transoceanic
08:16AM 44.7790 176.8307 83° East 535 616 40,000  Level FlightAware Transoceanic
08:17AM 44.7965 177.0412 83° East 535 616 40,000  Level FlightAware Transoceanic
08:18AM 44.8135 177.2518 84° East 535 616 40,000  Level FlightAware Transoceanic
08:19AM 44.8302 177.4625 84° East 535 616 40,000  Level FlightAware Transoceanic
08:20AM 44.8465 177.6734 84° East 535 616 40,000  Level FlightAware Transoceanic
08:20AM 44.8500 177.6167 84° East 540 621 40,000  Level Oakland Oceanic (ODAPS)
08:21AM 44.8624 177.8844 84° East 535 616 40,000  Level FlightAware Transoceanic
08:22AM 44.8779 178.0955 84° East 535 616 40,000  Level FlightAware Transoceanic
08:23AM 44.8931 178.3067 84° East 535 616 40,000  Level FlightAware Transoceanic
08:24AM 44.9078 178.5180 84° East 535 616 40,000  Level FlightAware Transoceanic
08:25AM 44.9221 178.7294 85° East 535 616 40,000  Level FlightAware Transoceanic
08:26AM 44.9380 178.9151 85° East 540 621 40,000  Level FlightAware Transoceanic
08:27AM 44.9512 179.1319 85° East 540 621 40,000  Level FlightAware Transoceanic
08:28AM 44.9640 179.3488 85° East 540 621 40,000  Level FlightAware Transoceanic
08:29AM 44.9764 179.5658 85° East 540 621 40,000  Level FlightAware Transoceanic
08:30AM 44.9884 179.7828 86° East 540 621 40,000  Level FlightAware Transoceanic
08:31AM 45.0000 -180.0000 63° Northeast 540 621 40,000  Level FlightAware Transoceanic
08:31AM 45.0000 180.0000 63° Northeast 554 638 40,000  Level Oakland Oceanic (ODAPS)
08:32AM 45.0711 -179.8031 63° Northeast 540 621 40,000  Level FlightAware Transoceanic
08:33AM 45.1418 -179.6056 63° Northeast 540 621 40,000  Level FlightAware Transoceanic
08:33AM 45.1833 -179.4833 63° Northeast 561 646 40,000  Level Oakland Oceanic (ODAPS)
08:34AM 45.2122 -179.4077 63° Northeast 540 621 40,000  Level FlightAware Transoceanic
08:35AM 45.2823 -179.2093 63° Northeast 540 621 40,000  Level FlightAware Transoceanic
08:36AM 45.3520 -179.0103 64° Northeast 540 621 40,000  Level FlightAware Transoceanic
08:37AM 45.4129 -178.8354 64° Northeast 554 638 40,000  Level FlightAware Transoceanic
08:38AM 45.4806 -178.6396 64° Northeast 554 638 40,000  Level FlightAware Transoceanic
08:39AM 45.5479 -178.4434 64° Northeast 554 638 40,000  Level FlightAware Transoceanic
08:40AM 45.6031 -178.2764 64° Northeast 561 646 40,000  Level FlightAware Transoceanic
08:41AM 45.6718 -178.0735 64° Northeast 561 646 40,000  Level FlightAware Transoceanic
08:42AM 45.7401 -177.8701 64° Northeast 561 646 40,000  Level FlightAware Transoceanic
08:43AM 45.8081 -177.6662 65° Northeast 561 646 40,000  Level FlightAware Transoceanic
08:44AM 45.8757 -177.4618 65° Northeast 561 646 40,000  Level FlightAware Transoceanic
08:45AM 45.9430 -177.2569 65° Northeast 561 646 40,000  Level FlightAware Transoceanic
08:46AM 46.0099 -177.0516 65° Northeast 561 646 40,000  Level FlightAware Transoceanic
08:47AM 46.0764 -176.8457 65° Northeast 561 646 40,000  Level FlightAware Transoceanic
08:47AM 46.1167 -176.7167 65° Northeast 563 648 40,000  Level Oakland Oceanic (ODAPS)
08:48AM 46.1426 -176.6393 65° Northeast 561 646 40,000  Level FlightAware Transoceanic
08:49AM 46.2083 -176.4324 65° Northeast 561 646 40,000  Level FlightAware Transoceanic
08:50AM 46.2738 -176.2251 66° East 561 646 40,000  Level FlightAware Transoceanic
08:51AM 46.3388 -176.0172 66° East 561 646 40,000  Level FlightAware Transoceanic
08:52AM 46.4034 -175.8089 66° East 561 646 40,000  Level FlightAware Transoceanic
08:53AM 46.4466 -175.6657 66° East 563 648 40,000  Level FlightAware Transoceanic
08:54AM 46.5114 -175.4540 66° East 563 648 40,000  Level FlightAware Transoceanic
08:55AM 46.5758 -175.2418 66° East 563 648 40,000  Level FlightAware Transoceanic
08:56AM 46.6399 -175.0291 66° East 563 648 40,000  Level FlightAware Transoceanic
08:57AM 46.7035 -174.8158 67° East 563 648 40,000  Level FlightAware Transoceanic
08:58AM 46.7668 -174.6021 67° East 563 648 40,000  Level FlightAware Transoceanic
08:59AM 46.8296 -174.3879 67° East 563 648 40,000  Level FlightAware Transoceanic
09:00AM 46.8921 -174.1732 67° East 563 648 40,000  Level FlightAware Transoceanic
09:01AM 46.9541 -173.9579 67° East 563 648 40,000  Level FlightAware Transoceanic
09:01AM 46.9833 -173.8667 67° East 564 649 40,000  Level Oakland Oceanic (ODAPS)
09:02AM 47.0157 -173.7422 67° East 563 648 40,000  Level FlightAware Transoceanic
09:03AM 47.0770 -173.5260 68° East 563 648 40,000  Level FlightAware Transoceanic
09:04AM 47.1378 -173.3093 68° East 563 648 40,000  Level FlightAware Transoceanic
09:05AM 47.1982 -173.0921 68° East 563 648 40,000  Level FlightAware Transoceanic
09:06AM 47.2582 -172.8744 68° East 563 648 40,000  Level FlightAware Transoceanic
09:07AM 47.3366 -172.5945 68° East 564 649 40,000  Level FlightAware Transoceanic
09:08AM 47.3941 -172.3808 68° East 564 649 40,000  Level FlightAware Transoceanic
09:09AM 47.4512 -172.1667 69° East 564 649 40,000  Level FlightAware Transoceanic
09:10AM 47.5079 -171.9521 69° East 564 649 40,000  Level FlightAware Transoceanic
09:11AM 47.5642 -171.7370 69° East 564 649 40,000  Level FlightAware Transoceanic
09:12AM 47.6201 -171.5215 69° East 564 649 40,000  Level FlightAware Transoceanic
09:13AM 47.6756 -171.3055 69° East 564 649 40,000  Level FlightAware Transoceanic
09:14AM 47.7307 -171.0890 69° East 564 649 40,000  Level FlightAware Transoceanic
09:15AM 47.7854 -170.8721 70° East 564 649 40,000  Level FlightAware Transoceanic
09:15AM 47.7833 -170.9167 70° East 562 647 40,000  Level Oakland Oceanic (ODAPS)
09:16AM 47.8397 -170.6548 70° East 564 649 40,000  Level FlightAware Transoceanic
09:17AM 47.8935 -170.4370 70° East 564 649 40,000  Level FlightAware Transoceanic
09:18AM 47.9470 -170.2187 70° East 564 649 40,000  Level FlightAware Transoceanic
09:19AM 48.0000 -170.0000 78° East 564 649 40,000  Level FlightAware Transoceanic
09:19AM 48.0000 -170.0000 78° East 545 627 40,000  Level Oakland Oceanic (ODAPS)
09:20AM 48.0315 -169.7826 78° East 564 649 40,000  Level FlightAware Transoceanic
09:21AM 48.0626 -169.5649 78° East 562 647 40,000  Level FlightAware Transoceanic
09:22AM 48.0933 -169.3470 78° East 562 647 40,000  Level FlightAware Transoceanic
09:23AM 48.1236 -169.1288 78° East 562 647 40,000  Level FlightAware Transoceanic
09:24AM 48.1535 -168.9104 79° East 562 647 40,000  Level FlightAware Transoceanic
09:25AM 48.1829 -168.6917 79° East 562 647 40,000  Level FlightAware Transoceanic
09:26AM 48.1869 -168.6618 79° East 545 627 40,000  Level FlightAware Transoceanic
09:27AM 48.2166 -168.4379 79° East 545 627 40,000  Level FlightAware Transoceanic
09:28AM 48.2458 -168.2137 79° East 545 627 40,000  Level FlightAware Transoceanic
09:29AM 48.2745 -167.9892 79° East 545 627 40,000  Level FlightAware Transoceanic
09:29AM 48.3000 -167.8500 79° East 540 621 40,000  Level Oakland Oceanic (ODAPS)
09:30AM 48.3029 -167.7645 79° East 545 627 40,000  Level FlightAware Transoceanic
09:31AM 48.3307 -167.5395 80° East 545 627 40,000  Level FlightAware Transoceanic
09:32AM 48.3582 -167.3143 80° East 545 627 40,000  Level FlightAware Transoceanic
09:33AM 48.3852 -167.0888 80° East 545 627 40,000  Level FlightAware Transoceanic
09:34AM 48.4118 -166.8631 80° East 545 627 40,000  Level FlightAware Transoceanic
09:35AM 48.4577 -166.5210 80° East 540 621 40,000  Level FlightAware Transoceanic
09:36AM 48.4825 -166.2987 81° East 540 621 40,000  Level FlightAware Transoceanic
09:37AM 48.5068 -166.0762 81° East 540 621 40,000  Level FlightAware Transoceanic
09:38AM 48.5308 -165.8535 81° East 540 621 40,000  Level FlightAware Transoceanic
09:39AM 48.5542 -165.6305 81° East 540 621 40,000  Level FlightAware Transoceanic
09:40AM 48.5773 -165.4074 81° East 540 621 40,000  Level FlightAware Transoceanic
09:41AM 48.5999 -165.1841 81° East 540 621 40,000  Level FlightAware Transoceanic
09:42AM 48.6222 -164.9605 82° East 540 621 40,000  Level FlightAware Transoceanic
09:43AM 48.6439 -164.7368 82° East 540 621 40,000  Level FlightAware Transoceanic
09:43AM 48.6333 -164.8000 82° East 529 609 40,000  Level Oakland Oceanic (ODAPS)
09:44AM 48.6653 -164.5129 82° East 540 621 40,000  Level FlightAware Transoceanic
09:45AM 48.6862 -164.2888 82° East 540 621 40,000  Level FlightAware Transoceanic
09:46AM 48.7066 -164.0645 82° East 540 621 40,000  Level FlightAware Transoceanic
09:47AM 48.7267 -163.8400 82° East 540 621 40,000  Level FlightAware Transoceanic
09:48AM 48.7463 -163.6154 83° East 540 621 40,000  Level FlightAware Transoceanic
09:49AM 48.7531 -163.4982 83° East 529 609 40,000  Level FlightAware Transoceanic
09:50AM 48.7716 -163.2806 83° East 529 609 40,000  Level FlightAware Transoceanic
09:51AM 48.7897 -163.0629 83° East 529 609 40,000  Level FlightAware Transoceanic
09:52AM 48.8074 -162.8450 83° East 529 609 40,000  Level FlightAware Transoceanic
09:53AM 48.8247 -162.6270 83° East 529 609 40,000  Level FlightAware Transoceanic
09:54AM 48.8416 -162.4088 83° East 529 609 40,000  Level FlightAware Transoceanic
09:55AM 48.8581 -162.1905 84° East 529 609 40,000  Level FlightAware Transoceanic
09:56AM 48.8741 -161.9720 84° East 529 609 40,000  Level FlightAware Transoceanic
09:57AM 48.8898 -161.7534 84° East 529 609 40,000  Level FlightAware Transoceanic
09:57AM 48.8833 -161.8167 84° East 512 589 40,000  Level Oakland Oceanic (ODAPS)
09:58AM 48.9050 -161.5347 84° East 529 609 40,000  Level FlightAware Transoceanic
09:59AM 48.9198 -161.3158 84° East 529 609 40,000  Level FlightAware Transoceanic
10:00AM 48.9342 -161.0968 84° East 529 609 40,000  Level FlightAware Transoceanic
10:01AM 48.9482 -160.8777 85° East 529 609 40,000  Level FlightAware Transoceanic
10:02AM 48.9618 -160.6584 85° East 529 609 40,000  Level FlightAware Transoceanic
10:03AM 48.9735 -160.4550 85° East 512 589 40,000  Level FlightAware Transoceanic
10:04AM 48.9870 -160.2275 85° East 512 589 40,000  Level FlightAware Transoceanic
10:05AM 49.0000 -160.0000 95° East 512 589 40,000  Level FlightAware Transoceanic
10:05AM 49.0000 -160.0000 95° East 519 597 40,000  Level Oakland Oceanic (ODAPS)
10:06AM 48.9876 -159.7789 95° East 512 589 40,000  Level FlightAware Transoceanic
10:07AM 48.9747 -159.5580 95° East 512 589 40,000  Level FlightAware Transoceanic
10:08AM 48.9615 -159.3372 95° East 512 589 40,000  Level FlightAware Transoceanic
10:09AM 48.9478 -159.1165 95° East 512 589 40,000  Level FlightAware Transoceanic
10:10AM 48.9337 -158.8959 96° East 512 589 40,000  Level FlightAware Transoceanic
10:10AM 48.9333 -158.8333 96° East 518 596 40,000  Level Oakland Oceanic (ODAPS)
10:11AM 48.9192 -158.6755 96° East 512 589 40,000  Level FlightAware Transoceanic
10:12AM 48.9065 -158.4880 96° East 519 597 40,000  Level FlightAware Transoceanic
10:13AM 48.8915 -158.2724 96° East 519 597 40,000  Level FlightAware Transoceanic
10:14AM 48.8761 -158.0570 96° East 519 597 40,000  Level FlightAware Transoceanic
10:15AM 48.8603 -157.8418 96° East 519 597 40,000  Level FlightAware Transoceanic
10:16AM 48.8442 -157.6267 97° East 519 597 40,000  Level FlightAware Transoceanic
10:17AM 48.8393 -157.5219 97° East 518 596 40,000  Level FlightAware Transoceanic
10:18AM 48.8222 -157.3038 97° East 518 596 40,000  Level FlightAware Transoceanic
10:19AM 48.8047 -157.0859 97° East 518 596 40,000  Level FlightAware Transoceanic
10:20AM 48.7868 -156.8682 97° East 518 596 40,000  Level FlightAware Transoceanic
10:21AM 48.7684 -156.6505 97° East 518 596 40,000  Level FlightAware Transoceanic
10:22AM 48.7497 -156.4331 98° East 518 596 40,000  Level FlightAware Transoceanic
10:23AM 48.7305 -156.2158 98° East 518 596 40,000  Level FlightAware Transoceanic
10:24AM 48.7109 -155.9987 98° East 518 596 40,000  Level FlightAware Transoceanic
10:24AM 48.7000 -155.9000 98° East 513 590 40,000  Level Oakland Oceanic (ODAPS)
10:25AM 48.6910 -155.7818 98° East 518 596 40,000  Level FlightAware Transoceanic
10:26AM 48.6706 -155.5650 98° East 518 596 40,000  Level FlightAware Transoceanic
10:27AM 48.6498 -155.3484 98° East 518 596 40,000  Level FlightAware Transoceanic
10:28AM 48.6286 -155.1320 99° East 518 596 40,000  Level FlightAware Transoceanic
10:29AM 48.6070 -154.9157 99° East 518 596 40,000  Level FlightAware Transoceanic
10:30AM 48.5850 -154.6997 99° East 518 596 40,000  Level FlightAware Transoceanic
10:31AM 48.5755 -154.6226 99° East 513 590 40,000  Level FlightAware Transoceanic
10:32AM 48.5534 -154.4103 99° East 513 590 40,000  Level FlightAware Transoceanic
10:33AM 48.5309 -154.1982 99° East 513 590 40,000  Level FlightAware Transoceanic
10:34AM 48.5080 -153.9863 99° East 513 590 40,000  Level FlightAware Transoceanic
10:35AM 48.4847 -153.7746 100° East 513 590 40,000  Level FlightAware Transoceanic
10:36AM 48.4611 -153.5631 100° East 513 590 40,000  Level FlightAware Transoceanic
10:37AM 48.4370 -153.3517 100° East 513 590 40,000  Level FlightAware Transoceanic
10:38AM 48.4126 -153.1406 100° East 513 590 40,000  Level FlightAware Transoceanic
10:38AM 48.3833 -152.9500 100° East 520 598 40,000  Level Oakland Oceanic (ODAPS)
10:39AM 48.3877 -152.9297 100° East 513 590 40,000  Level FlightAware Transoceanic
10:40AM 48.3625 -152.7190 100° East 513 590 40,000  Level FlightAware Transoceanic
10:41AM 48.3369 -152.5085 100° East 513 590 40,000  Level FlightAware Transoceanic
10:42AM 48.3109 -152.2982 101° East 513 590 40,000  Level FlightAware Transoceanic
10:43AM 48.2846 -152.0882 101° East 513 590 40,000  Level FlightAware Transoceanic
10:44AM 48.2578 -151.8783 101° East 513 590 40,000  Level FlightAware Transoceanic
10:45AM 48.2011 -151.4695 101° East 520 598 40,000  Level FlightAware Transoceanic
10:46AM 48.1735 -151.2589 101° East 520 598 40,000  Level FlightAware Transoceanic
10:47AM 48.1456 -151.0485 101° East 520 598 40,000  Level FlightAware Transoceanic
10:48AM 48.1172 -150.8383 102° East 520 598 40,000  Level FlightAware Transoceanic
10:49AM 48.0885 -150.6284 102° East 520 598 40,000  Level FlightAware Transoceanic
10:50AM 48.0594 -150.4187 102° East 520 598 40,000  Level FlightAware Transoceanic
10:51AM 48.0299 -150.2092 102° East 520 598 40,000  Level FlightAware Transoceanic
10:52AM 48.0000 -150.0000 110° East 520 598 40,000  Level FlightAware Transoceanic
10:52AM 48.0000 -150.0000 110° East 540 621 40,000  Level Oakland Oceanic (ODAPS)
10:52AM 48.0000 -149.9833 110° East 546 628 40,000  Level Oakland Oceanic (ODAPS)
10:53AM 47.9488 -149.7893 110° East 520 598 40,000  Level FlightAware Transoceanic
10:54AM 47.8973 -149.5791 110° East 520 598 40,000  Level FlightAware Transoceanic
10:55AM 47.8454 -149.3692 110° East 520 598 40,000  Level FlightAware Transoceanic
10:56AM 47.7930 -149.1598 110° East 520 598 40,000  Level FlightAware Transoceanic
10:57AM 47.7404 -148.9508 111° Southeast 520 598 40,000  Level FlightAware Transoceanic
10:58AM 47.6873 -148.7423 111° Southeast 540 621 40,000  Level FlightAware Transoceanic
10:59AM 47.6337 -148.5199 111° Southeast 546 628 40,000  Level FlightAware Transoceanic
11:00AM 47.5798 -148.3125 111° Southeast 546 628 40,000  Level FlightAware Transoceanic
11:01AM 47.5256 -148.1056 111° Southeast 546 628 40,000  Level FlightAware Transoceanic
11:02AM 47.4710 -147.8991 111° Southeast 546 628 40,000  Level FlightAware Transoceanic
11:03AM 47.4160 -147.6930 112° Southeast 546 628 40,000  Level FlightAware Transoceanic
11:04AM 47.3607 -147.4873 112° Southeast 546 628 40,000  Level FlightAware Transoceanic
11:05AM 47.3050 -147.2821 112° Southeast 546 628 40,000  Level FlightAware Transoceanic
11:06AM 47.2490 -147.0773 112° Southeast 546 628 40,000  Level FlightAware Transoceanic
11:06AM 47.2500 -147.1167 112° Southeast 547 629 40,000  Level Oakland Oceanic (ODAPS)
11:07AM 47.1926 -146.8730 112° Southeast 546 628 40,000  Level FlightAware Transoceanic
11:08AM 47.1358 -146.6691 112° Southeast 546 628 40,000  Level FlightAware Transoceanic
11:09AM 47.0786 -146.4656 112° Southeast 546 628 40,000  Level FlightAware Transoceanic
11:10AM 47.0211 -146.2625 113° Southeast 546 628 40,000  Level FlightAware Transoceanic
11:11AM 46.9632 -146.0600 113° Southeast 546 628 40,000  Level FlightAware Transoceanic
11:12AM 46.9062 -145.8903 113° Southeast 547 629 40,000  Level FlightAware Transoceanic
11:13AM 46.8477 -145.6875 113° Southeast 547 629 40,000  Level FlightAware Transoceanic
11:14AM 46.7887 -145.4851 113° Southeast 547 629 40,000  Level FlightAware Transoceanic
11:15AM 46.7295 -145.2831 113° Southeast 547 629 40,000  Level FlightAware Transoceanic
11:16AM 46.6698 -145.0816 113° Southeast 547 629 40,000  Level FlightAware Transoceanic
11:17AM 46.6099 -144.8805 114° Southeast 547 629 40,000  Level FlightAware Transoceanic
11:18AM 46.5495 -144.6799 114° Southeast 547 629 40,000  Level FlightAware Transoceanic
11:19AM 46.4888 -144.4797 114° Southeast 547 629 40,000  Level FlightAware Transoceanic
11:20AM 46.4278 -144.2800 114° Southeast 547 629 40,000  Level FlightAware Transoceanic
11:20AM 46.4333 -144.3000 114° Southeast 549 632 40,000  Level Oakland Oceanic (ODAPS)
11:21AM 46.3664 -144.0807 114° Southeast 547 629 40,000  Level FlightAware Transoceanic
11:22AM 46.3047 -143.8819 114° Southeast 547 629 40,000  Level FlightAware Transoceanic
11:23AM 46.2426 -143.6835 114° Southeast 547 629 40,000  Level FlightAware Transoceanic
11:24AM 46.1802 -143.4856 115° Southeast 547 629 40,000  Level FlightAware Transoceanic
11:25AM 46.1175 -143.2881 115° Southeast 547 629 40,000  Level FlightAware Transoceanic
11:26AM 46.0586 -143.1054 115° Southeast 549 632 40,000  Level FlightAware Transoceanic
11:27AM 45.9949 -142.9079 115° Southeast 549 632 40,000  Level FlightAware Transoceanic
11:28AM 45.9309 -142.7108 115° Southeast 549 632 40,000  Level FlightAware Transoceanic
11:29AM 45.8665 -142.5142 115° Southeast 549 632 40,000  Level FlightAware Transoceanic
11:30AM 45.8018 -142.3181 115° Southeast 549 632 40,000  Level FlightAware Transoceanic
11:31AM 45.7368 -142.1224 116° Southeast 549 632 40,000  Level FlightAware Transoceanic
11:32AM 45.6715 -141.9272 116° Southeast 549 632 40,000  Level FlightAware Transoceanic
11:33AM 45.6058 -141.7324 116° Southeast 549 632 40,000  Level FlightAware Transoceanic
11:34AM 45.5398 -141.5381 116° Southeast 549 632 40,000  Level FlightAware Transoceanic
11:34AM 45.5500 -141.5667 116° Southeast 547 629 40,000  Level Oakland Oceanic (ODAPS)
11:35AM 45.4734 -141.3442 116° Southeast 549 632 40,000  Level FlightAware Transoceanic
11:36AM 45.4068 -141.1508 116° Southeast 549 632 40,000  Level FlightAware Transoceanic
11:37AM 45.3398 -140.9579 116° Southeast 549 632 40,000  Level FlightAware Transoceanic
11:38AM 45.2725 -140.7654 117° Southeast 549 632 40,000  Level FlightAware Transoceanic
11:39AM 45.2048 -140.5733 117° Southeast 549 632 40,000  Level FlightAware Transoceanic
11:40AM 45.1395 -140.3888 117° Southeast 547 629 40,000  Level FlightAware Transoceanic
11:41AM 45.0699 -140.1942 117° Southeast 547 629 40,000  Level FlightAware Transoceanic
11:42AM 45.0000 -140.0000 121° Southeast 547 629 40,000  Level FlightAware Transoceanic
11:42AM 45.0000 -140.0000 121° Southeast 571 657 40,000  Level Oakland Oceanic (ODAPS)
11:43AM 44.9188 -139.8070 121° Southeast 547 629 40,000  Level FlightAware Transoceanic
11:44AM 44.8372 -139.6146 121° Southeast 547 629 40,000  Level FlightAware Transoceanic
11:45AM 44.7553 -139.4227 121° Southeast 547 629 40,000  Level FlightAware Transoceanic
11:46AM 44.6731 -139.2314 121° Southeast 547 629 40,000  Level FlightAware Transoceanic
11:47AM 44.5906 -139.0406 121° Southeast 547 629 40,000  Level FlightAware Transoceanic
11:47AM 44.5333 -138.9000 121° Southeast 578 665 40,000  Level Oakland Oceanic (ODAPS)
11:48AM 44.5077 -138.8503 121° Southeast 571 657 40,000  Level FlightAware Transoceanic
11:49AM 44.4246 -138.6606 122° Southeast 571 657 40,000  Level FlightAware Transoceanic
11:50AM 44.3411 -138.4714 122° Southeast 571 657 40,000  Level FlightAware Transoceanic
11:51AM 44.2573 -138.2828 122° Southeast 571 657 40,000  Level FlightAware Transoceanic
11:52AM 44.1732 -138.0947 122° Southeast 571 657 40,000  Level FlightAware Transoceanic
11:53AM 44.0888 -137.9071 122° Southeast 571 657 40,000  Level FlightAware Transoceanic
11:54AM 44.0271 -137.7630 122° Southeast 578 665 40,000  Level FlightAware Transoceanic
11:55AM 43.9416 -137.5754 122° Southeast 578 665 40,000  Level FlightAware Transoceanic
11:56AM 43.8559 -137.3884 123° Southeast 578 665 40,000  Level FlightAware Transoceanic
11:57AM 43.7698 -137.2018 123° Southeast 578 665 40,000  Level FlightAware Transoceanic
11:58AM 43.6834 -137.0158 123° Southeast 578 665 40,000  Level FlightAware Transoceanic
11:59AM 43.5967 -136.8304 123° Southeast 578 665 40,000  Level FlightAware Transoceanic
12:00PM 43.5098 -136.6455 123° Southeast 578 665 40,000  Level FlightAware Transoceanic
12:01PM 43.4225 -136.4611 123° Southeast 578 665 40,000  Level FlightAware Transoceanic
12:01PM 43.3333 -136.2833 123° Southeast 590 679 40,000  Level Oakland Oceanic (ODAPS)
12:02PM 43.3349 -136.2773 123° Southeast 578 665 40,000  Level FlightAware Transoceanic
12:03PM 43.2471 -136.0939 123° Southeast 578 665 40,000  Level FlightAware Transoceanic
12:04PM 43.1589 -135.9111 124° Southeast 578 665 40,000  Level FlightAware Transoceanic
12:05PM 43.0704 -135.7289 124° Southeast 578 665 40,000  Level FlightAware Transoceanic
12:06PM 42.9817 -135.5471 124° Southeast 578 665 40,000  Level FlightAware Transoceanic
12:07PM 42.8927 -135.3659 124° Southeast 578 665 40,000  Level FlightAware Transoceanic
12:08PM 42.7868 -135.1593 124° Southeast 590 679 40,000  Level FlightAware Transoceanic
12:09PM 42.6946 -134.9740 124° Southeast 590 679 40,000  Level FlightAware Transoceanic
12:10PM 42.6022 -134.7891 124° Southeast 590 679 40,000  Level FlightAware Transoceanic
12:11PM 42.5095 -134.6048 124° Southeast 590 679 40,000  Level FlightAware Transoceanic
12:12PM 42.4164 -134.4211 125° Southeast 590 679 40,000  Level FlightAware Transoceanic
12:13PM 42.3231 -134.2379 125° Southeast 590 679 40,000  Level FlightAware Transoceanic
12:14PM 42.2295 -134.0552 125° Southeast 590 679 40,000  Level FlightAware Transoceanic
12:15PM 42.1356 -133.8731 125° Southeast 590 679 40,000  Level FlightAware Transoceanic
12:15PM 42.0667 -133.7500 125° Southeast 579 666 40,000  Level Oakland Oceanic (ODAPS)
12:16PM 42.0414 -133.6915 125° Southeast 590 679 40,000  Level FlightAware Transoceanic
12:17PM 41.9469 -133.5105 125° Southeast 590 679 40,000  Level FlightAware Transoceanic
12:18PM 41.8521 -133.3300 125° Southeast 590 679 40,000  Level FlightAware Transoceanic
12:19PM 41.7571 -133.1500 125° Southeast 590 679 40,000  Level FlightAware Transoceanic
12:20PM 41.6617 -132.9706 125° Southeast 590 679 40,000  Level FlightAware Transoceanic
12:21PM 41.5858 -132.8356 126° Southeast 579 666 40,000  Level FlightAware Transoceanic
12:22PM 41.4887 -132.6544 126° Southeast 579 666 40,000  Level FlightAware Transoceanic
12:23PM 41.3914 -132.4737 126° Southeast 579 666 40,000  Level FlightAware Transoceanic
12:24PM 41.2938 -132.2936 126° Southeast 579 666 40,000  Level FlightAware Transoceanic
12:25PM 41.1959 -132.1140 126° Southeast 579 666 40,000  Level FlightAware Transoceanic
12:26PM 41.0977 -131.9349 126° Southeast 579 666 40,000  Level FlightAware Transoceanic
12:27PM 40.9993 -131.7564 126° Southeast 579 666 40,000  Level FlightAware Transoceanic
12:28PM 40.9006 -131.5784 126° Southeast 579 666 40,000  Level FlightAware Transoceanic
12:29PM 40.8016 -131.4009 126° Southeast 579 666 40,000  Level FlightAware Transoceanic
12:29PM 40.7833 -131.3667 127° Southeast 567 652 40,000  Level Oakland Oceanic (ODAPS)
12:30PM 40.7023 -131.2239 127° Southeast 579 666 40,000  Level FlightAware Transoceanic
12:31PM 40.6028 -131.0475 127° Southeast 579 666 40,000  Level FlightAware Transoceanic
12:32PM 40.5030 -130.8716 127° Southeast 579 666 40,000  Level FlightAware Transoceanic
12:33PM 40.4029 -130.6963 127° Southeast 579 666 40,000  Level FlightAware Transoceanic
12:34PM 40.3026 -130.5214 127° Southeast 579 666 40,000  Level FlightAware Transoceanic
12:35PM 40.2629 -130.4520 127° Southeast 567 652 40,000  Level FlightAware Transoceanic
12:36PM 40.1755 -130.3010 127° Southeast 567 652 40,000  Level FlightAware Transoceanic
12:37PM 40.0878 -130.1503 127° Southeast 567 652 40,000  Level FlightAware Transoceanic
12:38PM 40.0000 -130.0000 122° Southeast 567 652 40,000  Level FlightAware Transoceanic
12:38PM 40.0000 -130.0000 122° Southeast 567 652 40,000  Level Oakland Oceanic (ODAPS)
12:39PM 39.9169 -129.8299 123° Southeast 567 652 40,000  Level FlightAware Transoceanic
12:40PM 39.8335 -129.6602 123° Southeast 567 652 40,000  Level FlightAware Transoceanic
12:41PM 39.7499 -129.4908 123° Southeast 567 652 40,000  Level FlightAware Transoceanic
12:42PM 39.6660 -129.3219 123° Southeast 567 652 40,000  Level FlightAware Transoceanic
12:43PM 39.5818 -129.1535 123° Southeast 567 652 40,000  Level FlightAware Transoceanic
12:43PM 39.5333 -129.0667 123° Southeast 570 656 40,000  Level Oakland Oceanic (ODAPS)
12:44PM 39.4975 -128.9854 123° Southeast 567 652 40,000  Level FlightAware Transoceanic
12:45PM 39.4129 -128.8177 123° Southeast 567 652 40,000  Level FlightAware Transoceanic
12:46PM 39.3280 -128.6505 123° Southeast 567 652 40,000  Level FlightAware Transoceanic
12:47PM 39.2430 -128.4836 123° Southeast 567 652 40,000  Level FlightAware Transoceanic
12:48PM 39.1576 -128.3172 124° Southeast 567 652 40,000  Level FlightAware Transoceanic
12:49PM 39.0046 -128.0255 124° Southeast 570 656 40,000  Level FlightAware Transoceanic
12:50PM 38.9155 -127.8535 124° Southeast 570 656 40,000  Level FlightAware Transoceanic
12:51PM 38.8263 -127.6820 124° Southeast 570 656 40,000  Level FlightAware Transoceanic
12:52PM 38.7367 -127.5108 124° Southeast 570 656 40,000  Level FlightAware Transoceanic
12:53PM 38.6470 -127.3401 124° Southeast 570 656 40,000  Level FlightAware Transoceanic
12:53PM 38.6883 -127.4144 111° Southeast 557 641 40,000  Level Oakland Center
12:54PM 38.5569 -127.1699 124° Southeast 570 656 40,000  Level FlightAware Transoceanic
12:54PM 38.6019 -127.2525 124° Southeast 553 636 40,000  Level Oakland Center
12:55PM 38.4667 -127.0000 111° Southeast 570 656 40,000  Level FlightAware Transoceanic
12:56PM 38.4158 -126.8324 111° Southeast 570 656 40,000  Level FlightAware Transoceanic
12:57PM 38.3646 -126.6650 111° Southeast 570 656 40,000  Level FlightAware Transoceanic
12:58PM 38.3132 -126.4979 111° Southeast 570 656 40,000  Level FlightAware Transoceanic
12:59PM 38.1840 -126.2200 124° Southeast 574 661 40,000  Level FlightAware
01:00PM 38.1430 -126.1100 115° Southeast 577 664 40,000  Level FlightAware
01:01PM 38.1030 -126.0010 115° Southeast 573 659 40,000  Level FlightAware
01:01PM 38.0670 -125.9040 115° Southeast 574 661 40,000  Level FlightAware
01:02PM 38.0240 -125.7870 115° Southeast 574 661 40,000  Level FlightAware
01:02PM 37.9820 -125.6740 115° Southeast 573 659 40,000  Level FlightAware
01:03PM 37.9450 -125.5770 116° Southeast 575 662 40,000  Level FlightAware
01:04PM 37.9050 -125.4700 115° Southeast 575 662 40,000  Level FlightAware
01:04PM 37.8660 -125.3660 115° Southeast 577 664 40,000  Level FlightAware
01:05PM 37.8250 -125.2570 115° Southeast 577 664 40,000  Level FlightAware
01:05PM 37.7900 -125.1630 115° Southeast 577 664 40,000  Level FlightAware
01:06PM 37.7560 -125.0690 115° Southeast 577 664 40,000  Level FlightAware
01:07PM 37.6980 -124.9260 117° Southeast 568 654 40,000  Level FlightAware
01:07PM 37.6570 -124.8200 116° Southeast 568 654 40,000  Level FlightAware
01:08PM 37.6180 -124.7170 116° Southeast 568 654 40,000  Level FlightAware
01:08PM 37.5740 -124.6030 116° Southeast 571 657 40,000  Level FlightAware
01:09PM 37.5360 -124.5050 116° Southeast 569 655 40,000  Level FlightAware
01:09PM 37.4950 -124.4000 116° Southeast 568 654 40,000  Level FlightAware
01:10PM 37.4520 -124.2910 116° Southeast 567 652 40,000 540 Level FlightAware
01:11PM 37.3900 -124.1310 116° Southeast 563 648 40,900 600 Climbing FlightAware
01:12PM 37.3510 -124.0310 116° Southeast 563 648 41,000 60 Climbing FlightAware
01:12PM 37.3050 -123.9160 117° Southeast 559 643 41,000  Level FlightAware
01:13PM 37.2730 -123.8310 115° Southeast 559 643 41,000  Level FlightAware
01:13PM 37.2380 -123.7420 116° Southeast 559 643 41,000  Level FlightAware
01:14PM 37.2030 -123.6530 116° Southeast 559 643 41,000  Level FlightAware
01:15PM 37.1680 -123.5610 115° Southeast 559 643 41,000  Level FlightAware
01:15PM 37.0880 -123.3730 118° Southeast 561 646 41,000  Level FlightAware
01:16PM 37.0480 -123.2730 117° Southeast 559 643 41,000  Level FlightAware
01:16PM 37.0090 -123.1770 117° Southeast 558 642 41,000  Level FlightAware
01:17PM 36.9700 -123.0810 117° Southeast 556 640 41,000  Level FlightAware
01:18PM 36.9320 -122.9860 117° Southeast 555 639 41,000  Level FlightAware
01:18PM 36.8840 -122.8700 117° Southeast 552 635 41,000  Level FlightAware
01:19PM 36.8470 -122.7790 117° Southeast 552 635 41,000  Level FlightAware
01:19PM 36.8060 -122.6800 117° Southeast 551 634 41,000  Level FlightAware
01:20PM 36.7620 -122.5830 119° Southeast 548 631 41,000  Level FlightAware
01:21PM 36.7170 -122.4900 121° Southeast 548 631 41,000  Level FlightAware
01:21PM 36.6700 -122.3940 121° Southeast 548 631 41,000  Level FlightAware
01:21PM 36.6463 -122.3470 122° Southeast 547 629 41,000  Level FlightAware ADS-B
01:22PM 36.6049 -122.2630 122° Southeast 544 626 41,000  Level FlightAware ADS-B
01:23PM 36.5579 -122.1680 122° Southeast 542 624 41,000  Level FlightAware ADS-B
01:23PM 36.5143 -122.0800 122° Southeast 541 623 41,000  Level FlightAware ADS-B
01:24PM 36.4350 -121.9220 122° Southeast 538 619 41,000  Level FlightAware
01:25PM 36.3940 -121.8400 122° Southeast 538 619 41,000  Level FlightAware
01:25PM 36.3418 -121.7360 122° Southeast 540 621 41,000  Level FlightAware ADS-B
01:26PM 36.2983 -121.6490 122° Southeast 540 621 41,000  Level FlightAware ADS-B
01:26PM 36.2540 -121.5620 122° Southeast 540 621 41,000  Level FlightAware
01:27PM 36.1982 -121.4510 122° Southeast 541 623 41,000  Level FlightAware ADS-B
01:28PM 36.1573 -121.3710 122° Southeast 537 618 41,000  Level FlightAware ADS-B
01:29PM 36.0622 -121.1840 122° Southeast 536 617 41,000  Level FlightAware ADS-B
01:29PM 36.0177 -121.0970 122° Southeast 536 617 41,000  Level FlightAware ADS-B
01:30PM 35.9750 -121.0140 122° Southeast 536 617 41,000  Level FlightAware
01:30PM 35.9340 -120.9340 122° Southeast 536 617 41,000  Level FlightAware
01:31PM 35.8850 -120.8400 123° Southeast 536 617 41,000  Level FlightAware
01:32PM 35.8380 -120.7490 122° Southeast 537 618 41,000  Level FlightAware
01:32PM 35.7890 -120.6530 122° Southeast 537 618 41,000  Level FlightAware
01:33PM 35.7420 -120.5640 123° Southeast 535 616 41,000  Level FlightAware
01:33PM 35.7000 -120.4820 122° Southeast 536 617 41,000  Level FlightAware
01:34PM 35.6530 -120.3930 123° Southeast 537 618 41,000  Level FlightAware
01:35PM 35.6000 -120.2920 123° Southeast 536 617 41,000 -360 Level FlightAware
01:35PM 35.5500 -120.2120 128° Southeast 524 603 40,600 -1,140 Descending FlightAware
01:36PM 35.5147 -120.1680 135° Southeast 518 596 40,000 -1,740 Descending FlightAware ADS-B
01:36PM 35.4508 -120.0960 137° Southeast 517 595 39,000 -1,680 Descending FlightAware ADS-B
01:37PM 35.3660 -120.0010 138° Southeast 525 604 37,700 -1,440 Descending FlightAware
01:38PM 35.3030 -119.9290 137° Southeast 517 595 37,000 -2,280 Descending FlightAware
01:38PM 35.2425 -119.8610 137° Southeast 527 606 35,100 -3,480 Descending FlightAware ADS-B
01:39PM 35.1760 -119.7870 138° Southeast 545 627 32,600 -3,360 Descending FlightAware
01:39PM 35.0920 -119.6920 137° Southeast 532 612 30,500 -2,400 Descending FlightAware
01:40PM 35.0310 -119.6240 138° Southeast 509 586 29,600 -2,520 Descending FlightAware
01:41PM 34.9700 -119.5560 138° Southeast 502 578 27,600 -2,580 Descending FlightAware
01:41PM 34.9180 -119.4990 138° Southeast 490 564 26,600 -1,680 Descending FlightAware
01:42PM 34.8570 -119.4300 137° Southeast 482 555 25,700 -1,680 Descending FlightAware
01:42PM 34.7950 -119.3630 138° Southeast 475 547 24,700 -1,740 Descending FlightAware
01:43PM 34.7410 -119.3030 138° Southeast 459 528 23,700 -1,920 Descending FlightAware
01:44PM 34.6850 -119.2410 138° Southeast 453 521 22,500 -2,160 Descending FlightAware
01:44PM 34.6310 -119.1810 138° Southeast 438 504 21,200 -2,280 Descending FlightAware
01:45PM 34.5790 -119.1240 138° Southeast 436 502 19,900 -1,080 Descending FlightAware
01:45PM 34.5240 -119.0640 138° Southeast 437 503 20,000 -720 Climbing FlightAware
01:46PM 34.4730 -119.0080 138° Southeast 437 503 19,100 -2,160 Descending FlightAware
01:46PM 34.4190 -118.9500 138° Southeast 425 489 17,500 -2,340 Descending FlightAware
01:47PM 34.3640 -118.9070 147° Southeast 404 465 16,400 -3,120 Descending FlightAware
01:48PM 34.3030 -118.8760 157° South 398 458 13,900 -3,480 Descending FlightAware
01:48PM 34.2410 -118.8470 159° South 398 458 12,300 -1,680 Descending FlightAware
01:49PM 34.1840 -118.8200 159° South 360 414 12,000 -900 Descending FlightAware
01:49PM 34.1290 -118.7970 161° South 367 422 11,300 -1,200 Descending FlightAware
01:50PM 34.0720 -118.7760 163° South 347 399 10,600 -1,080 Descending FlightAware
01:50PM 34.0580 -118.7660 149° Southeast 355 409 10,500 -600 Descending FlightAware
01:50PM 34.0470 -118.7520 133° Southeast 354 407 10,400 -600 Descending FlightAware
01:50PM 34.0380 -118.7340 121° Southeast 352 405 10,300 -600 Descending FlightAware
01:51PM 34.0330 -118.7140 107° East 349 402 10,200 -480 Descending FlightAware
01:51PM 34.0280 -118.6610 96° East 325 374 10,000 -600 Descending FlightAware
01:52PM 34.0250 -118.6160 95° East 298 343 9,700 -1,380 Descending FlightAware
01:52PM 34.0230 -118.5850 94° East 296 341 9,000 -2,220 Descending FlightAware
01:52PM 34.0210 -118.5670 98° East 297 342 8,600 -2,220 Descending FlightAware
01:52PM 34.0180 -118.5340 96° East 297 342 7,900 -1,740 Descending FlightAware
01:53PM 34.0160 -118.5090 96° East 297 342 7,600 -1,200 Descending FlightAware
01:53PM 34.0120 -118.4760 98° East 292 336 7,200 -720 Descending FlightAware
01:53PM 34.0140 -118.4240 87° East 290 334 7,000 -720 Descending FlightAware
01:54PM 34.0180 -118.3930 81° East 289 333 6,600 -1,260 Descending FlightAware
01:54PM 34.0220 -118.3530 83° East 289 333 6,100 -1,260 Descending FlightAware
01:55PM 34.0250 -118.3230 83° East 288 331 5,700 -1,320 Descending FlightAware
01:55PM 34.0280 -118.2920 83° East 287 330 5,300 -1,200 Descending FlightAware
01:55PM 34.0300 -118.2590 86° East 269 310 4,900 -1,080 Descending FlightAware
01:56PM 34.0240 -118.2290 104° East 247 284 4,500 -1,080 Descending FlightAware
01:56PM 34.0200 -118.2230 129° Southeast 241 277 4,400 -720 Descending FlightAware
01:56PM 34.0160 -118.2190 140° Southeast 235 270 4,400 -1,200 Level FlightAware
01:56PM 34.0060 -118.2140 157° South 222 255 4,100 -1,500 Descending FlightAware
01:56PM 33.9930 -118.2100 166° South 211 243 3,800 -1,320 Descending FlightAware
01:56PM 33.9750 -118.2070 172° South 198 228 3,400 -1,140 Descending FlightAware
01:57PM 33.9560 -118.2160 201° Southwest 182 209 3,000 -1,080 Descending FlightAware
01:57PM 33.9540 -118.2200 239° Southwest 177 204 2,900  Descending FlightAware
01:57PM 33.9530 -118.2280 261° West 163 188 3,000 -420 Climbing FlightAware
01:57PM 33.9510 -118.2440 261° West 155 178 2,700 -1,200 Descending FlightAware
01:58PM 33.9490 -118.2680 264° West 158 182 2,100 -1,200 Descending FlightAware
01:58PM 33.9480 -118.2780 263° West 155 178 1,900 -1,080 Descending FlightAware
01:58PM 33.9460 -118.2970 263° West 146 168 1,500 -1,080 Descending FlightAware
01:59PM 33.9450 -118.3120 265° West 146 168 1,200 -780 Descending FlightAware
01:59PM 33.9430 -118.3270 261° West 139 160 1,000 -300 Descending FlightAware
02:00PM 33.9410 -118.3460 263° West 139 160 1,000 -480 Level FlightAware
02:00PM 33.9390 -118.3680 264° West 138 159 600 -780 Descending FlightAware
02:01PM 33.9361 -118.3958 264° West 138 159 100 -720 Descending Los Angeles Center